createdAt,value
2022-10-17T00:01:14.159Z,13.47
2022-10-17T00:03:42.741Z,13.57
2022-10-17T00:06:13.502Z,14.93
2022-10-17T00:08:43.659Z,13.60
2022-10-17T00:11:16.715Z,11.30
2022-10-17T00:13:45.164Z,10.07
2022-10-17T00:16:15.159Z,13.40
2022-10-17T00:18:43.637Z,17.13
2022-10-17T00:21:17.069Z,16.00
2022-10-17T00:23:45.590Z,14.23
2022-10-17T00:26:14.716Z,10.30
2022-10-17T00:28:43.513Z,15.03
2022-10-17T00:31:13.737Z,16.97
2022-10-17T00:33:43.134Z,16.93
2022-10-17T00:36:13.843Z,15.57
2022-10-17T00:38:42.871Z,12.07
2022-10-17T00:41:13.391Z,17.07
2022-10-17T00:43:53.448Z,16.37
2022-10-17T00:46:25.216Z,14.60
2022-10-17T00:48:56.317Z,17.23
2022-10-17T00:51:32.072Z,16.20
2022-10-17T00:54:01.998Z,13.70
2022-10-17T00:56:31.634Z,19.17
2022-10-17T00:59:00.941Z,10.07
2022-10-17T01:01:30.917Z,12.83
2022-10-17T01:03:59.834Z,14.47
2022-10-17T01:06:28.363Z,13.33
2022-10-17T01:08:57.322Z,13.57
2022-10-17T01:11:33.910Z,13.40
2022-10-17T01:14:09.883Z,14.60
2022-10-17T01:16:48.890Z,14.43
2022-10-17T01:19:41.983Z,16.77
2022-10-17T01:22:13.207Z,16.77
2022-10-17T01:24:51.067Z,12.67
2022-10-17T01:27:34.836Z,10.53
2022-10-17T01:30:44.955Z,14.10
2022-10-17T01:33:18.847Z,11.83
2022-10-17T01:35:53.988Z,13.00
2022-10-17T01:38:26.478Z,15.57
2022-10-17T01:41:01.591Z,14.10
2022-10-17T01:43:35.828Z,13.43
2022-10-17T01:46:13.959Z,12.10
2022-10-17T01:48:46.163Z,12.63
2022-10-17T01:51:18.726Z,13.53
2022-10-17T01:53:51.644Z,13.57
2022-10-17T01:56:23.019Z,20.00
2022-10-17T01:58:56.481Z,21.13
2022-10-17T02:01:30.658Z,15.37
2022-10-17T02:04:02.700Z,15.20
2022-10-17T02:06:35.057Z,15.93
2022-10-17T02:09:16.754Z,13.83
2022-10-17T02:12:04.368Z,15.20
2022-10-17T02:14:44.575Z,22.23
2022-10-17T02:17:24.488Z,14.40
2022-10-17T02:20:03.781Z,12.30
2022-10-17T02:22:40.151Z,17.47
2022-10-17T02:25:15.658Z,15.90
2022-10-17T02:27:49.770Z,14.80
2022-10-17T02:30:30.545Z,12.67
2022-10-17T02:33:03.740Z,15.23
2022-10-17T02:35:36.756Z,16.17
2022-10-17T02:38:07.654Z,14.07
2022-10-17T02:40:38.258Z,14.03
2022-10-17T02:43:06.744Z,19.13
2022-10-17T02:45:38.730Z,14.07
2022-10-17T02:48:12.024Z,15.13
2022-10-17T02:50:56.995Z,14.47
2022-10-17T02:53:31.220Z,15.83
2022-10-17T02:56:06.119Z,15.60
2022-10-17T02:58:37.009Z,15.03
2022-10-17T03:01:06.224Z,15.87
2022-10-17T03:03:36.047Z,16.10
2022-10-17T03:06:04.527Z,17.00
2022-10-17T03:08:33.061Z,13.90
2022-10-17T03:11:02.560Z,13.57
2022-10-17T03:13:34.963Z,17.27
2022-10-17T03:16:06.275Z,13.63
2022-10-17T03:18:36.519Z,16.10
2022-10-17T03:21:05.953Z,13.47
2022-10-17T03:23:35.395Z,13.43
2022-10-17T03:26:05.721Z,15.63
2022-10-17T03:28:35.693Z,12.63
2022-10-17T03:31:09.224Z,17.27
2022-10-17T03:33:40.453Z,17.83
2022-10-17T03:36:09.955Z,15.03
2022-10-17T03:38:39.060Z,8.77
2022-10-17T03:41:08.260Z,9.83
2022-10-17T03:43:38.696Z,11.03
2022-10-17T03:46:08.127Z,12.30
2022-10-17T03:48:37.822Z,12.83
2022-10-17T03:51:10.735Z,14.40
2022-10-17T03:53:47.020Z,10.93
2022-10-17T03:56:18.192Z,11.93
2022-10-17T03:58:53.016Z,9.67
2022-10-17T04:01:21.744Z,13.60
2022-10-17T04:03:51.643Z,11.23
2022-10-17T04:06:22.130Z,10.50
2022-10-17T04:08:51.300Z,14.07
2022-10-17T04:11:35.616Z,13.73
2022-10-17T04:14:05.633Z,10.37
2022-10-17T04:16:34.266Z,12.83
2022-10-17T04:19:07.005Z,14.03
2022-10-17T04:21:43.151Z,16.10
2022-10-17T04:24:12.566Z,12.97
2022-10-17T04:27:09.999Z,9.87
2022-10-17T04:29:43.946Z,15.20
2022-10-17T04:32:25.832Z,10.70
2022-10-17T04:35:09.472Z,13.00
2022-10-17T04:37:40.100Z,13.47
2022-10-17T04:40:14.700Z,14.60
2022-10-17T04:42:43.246Z,13.57
2022-10-17T04:45:14.456Z,12.20
2022-10-17T04:47:43.828Z,12.00
2022-10-17T04:50:12.289Z,11.23
2022-10-17T04:52:43.560Z,11.63
2022-10-17T04:55:11.954Z,12.57
2022-10-17T04:57:40.380Z,13.87
2022-10-17T05:00:18.965Z,12.60
2022-10-17T05:03:03.126Z,15.03
2022-10-17T05:05:32.024Z,15.17
2022-10-17T05:08:03.658Z,12.57
2022-10-17T05:10:37.498Z,14.03
2022-10-17T05:13:06.645Z,20.40
2022-10-17T05:15:35.845Z,11.73
2022-10-17T05:18:05.480Z,12.50
2022-10-17T05:20:34.185Z,18.43
2022-10-17T05:23:04.078Z,11.10
2022-10-17T05:25:37.243Z,9.53
2022-10-17T05:28:05.796Z,12.63
2022-10-17T05:30:36.861Z,17.27
2022-10-17T05:33:08.015Z,19.03
2022-10-17T05:35:36.961Z,16.57
2022-10-17T05:38:06.845Z,8.73
2022-10-17T05:40:38.469Z,11.63
2022-10-17T05:43:07.083Z,12.10
2022-10-17T05:45:36.552Z,11.27
2022-10-17T05:48:05.652Z,19.97
2022-10-17T05:50:34.519Z,12.57
2022-10-17T05:53:23.063Z,17.50
2022-10-17T05:55:58.098Z,13.57
2022-10-17T06:01:27.982Z,10.27
2022-10-17T06:03:57.297Z,11.30
2022-10-17T06:06:26.365Z,10.47
2022-10-17T06:08:56.236Z,13.70
2022-10-17T06:11:30.249Z,14.13
2022-10-17T06:13:58.711Z,8.93
2022-10-17T06:16:29.112Z,11.17
2022-10-17T06:18:57.538Z,11.20
2022-10-17T06:21:27.832Z,17.47
2022-10-17T06:24:07.833Z,17.10
2022-10-17T06:26:38.439Z,11.47
2022-10-17T06:29:09.061Z,13.13
2022-10-17T06:31:43.430Z,9.80
2022-10-17T06:34:12.478Z,13.23
2022-10-17T06:36:42.098Z,10.13
2022-10-17T06:39:13.240Z,14.33
2022-10-17T06:41:51.919Z,10.33
2022-10-17T06:44:22.684Z,12.90
2022-10-17T06:47:11.606Z,12.63
2022-10-17T06:49:41.007Z,11.53
2022-10-17T06:52:35.544Z,11.67
2022-10-17T06:55:32.312Z,12.47
2022-10-17T06:58:15.175Z,14.10
2022-10-17T07:01:05.782Z,9.70
2022-10-17T07:03:36.060Z,12.40
2022-10-17T07:06:05.436Z,11.30
2022-10-17T07:08:34.617Z,11.80
2022-10-17T07:11:12.324Z,14.73
2022-10-17T07:13:41.290Z,15.00
2022-10-17T07:16:10.240Z,9.93
2022-10-17T07:18:41.680Z,12.33
2022-10-17T07:21:10.449Z,11.13
2022-10-17T07:23:41.503Z,15.70
2022-10-17T07:26:13.035Z,15.90
2022-10-17T07:28:45.236Z,9.57
2022-10-17T07:31:39.965Z,10.33
2022-10-17T07:34:09.763Z,14.33
2022-10-17T07:36:38.592Z,8.67
2022-10-17T07:39:08.973Z,8.37
2022-10-17T07:41:40.509Z,9.77
2022-10-17T07:44:09.420Z,10.50
2022-10-17T07:46:50.685Z,11.50
2022-10-17T07:49:20.288Z,9.40
2022-10-17T07:51:49.688Z,10.63
2022-10-17T07:54:18.578Z,14.93
2022-10-17T07:56:50.581Z,14.07
2022-10-17T07:59:19.720Z,12.60
2022-10-17T08:01:48.490Z,13.93
2022-10-17T08:04:17.434Z,9.87
2022-10-17T08:06:45.842Z,10.90
2022-10-17T08:09:14.393Z,11.97
2022-10-17T08:11:43.859Z,9.57
2022-10-17T08:14:14.765Z,9.87
2022-10-17T08:16:43.390Z,12.33
2022-10-17T08:19:12.977Z,18.63
2022-10-17T08:21:45.072Z,23.47
2022-10-17T08:24:13.733Z,13.13
2022-10-17T08:26:43.980Z,19.77
2022-10-17T08:29:16.472Z,11.73
2022-10-17T08:31:47.914Z,10.23
2022-10-17T08:34:17.740Z,12.67
2022-10-17T08:36:46.157Z,13.57
2022-10-17T08:39:14.540Z,13.97
2022-10-17T08:41:58.123Z,11.83
2022-10-17T08:44:43.288Z,14.00
2022-10-17T08:47:15.617Z,15.77
2022-10-17T08:49:48.839Z,13.67
2022-10-17T08:52:22.869Z,13.93
2022-10-17T08:54:52.368Z,13.77
2022-10-17T08:57:21.117Z,14.47
2022-10-17T08:59:54.344Z,17.83
2022-10-17T09:02:39.979Z,14.27
2022-10-17T09:05:28.135Z,16.93
2022-10-17T09:08:08.019Z,18.00
2022-10-17T09:10:47.718Z,14.63
2022-10-17T09:13:31.900Z,22.73
2022-10-17T09:16:38.423Z,14.30
2022-10-17T09:19:13.509Z,16.20
2022-10-17T09:21:45.790Z,14.53
2022-10-17T09:24:18.886Z,12.23
2022-10-17T09:26:47.762Z,18.23
2022-10-17T09:29:23.111Z,14.70
2022-10-17T09:32:01.229Z,10.47
2022-10-17T09:34:32.064Z,20.73
2022-10-17T09:37:01.831Z,14.30
2022-10-17T09:39:32.068Z,13.53
2022-10-17T09:42:02.136Z,17.03
2022-10-17T09:44:33.009Z,13.73
2022-10-17T09:47:23.198Z,15.07
2022-10-17T09:49:52.152Z,19.47
2022-10-17T09:52:23.104Z,18.40
2022-10-17T09:54:53.867Z,10.77
2022-10-17T09:57:23.683Z,11.27
2022-10-17T09:59:59.131Z,10.77
2022-10-17T10:02:31.292Z,17.37
2022-10-17T10:05:05.654Z,14.33
2022-10-17T10:07:37.165Z,14.93
2022-10-17T10:10:08.945Z,14.80
2022-10-17T10:12:39.403Z,24.53
2022-10-17T10:15:31.442Z,14.90
2022-10-17T10:18:01.484Z,17.27
2022-10-17T10:20:33.839Z,11.73
2022-10-17T10:23:08.062Z,12.73
2022-10-17T10:25:36.991Z,17.90
2022-10-17T10:28:12.179Z,11.57
2022-10-17T10:30:40.701Z,11.27
2022-10-17T10:33:13.481Z,12.87
2022-10-17T10:35:41.933Z,11.87
2022-10-17T10:38:15.879Z,20.83
2022-10-17T10:40:47.987Z,15.30
2022-10-17T10:43:25.147Z,16.53
2022-10-17T10:45:54.373Z,13.40
2022-10-17T10:48:26.270Z,17.03
2022-10-17T10:50:58.845Z,10.87
2022-10-17T10:53:35.715Z,13.40
2022-10-17T10:56:11.683Z,17.03
2022-10-17T10:58:49.308Z,12.17
2022-10-17T11:01:23.511Z,11.33
2022-10-17T11:04:07.167Z,15.97
2022-10-17T11:06:38.259Z,10.57
2022-10-17T11:09:19.200Z,10.97
2022-10-17T11:11:52.047Z,13.03
2022-10-17T11:14:26.065Z,12.83
2022-10-17T11:17:02.053Z,12.50
2022-10-17T11:19:36.299Z,13.87
2022-10-17T11:22:12.867Z,14.23
2022-10-17T11:24:45.672Z,10.00
2022-10-17T11:27:14.120Z,12.80
2022-10-17T11:29:43.463Z,9.03
2022-10-17T11:32:18.855Z,7.47
2022-10-17T11:34:52.425Z,9.53
2022-10-17T11:37:27.571Z,10.03
2022-10-17T11:39:59.757Z,8.13
2022-10-17T11:42:32.575Z,10.70
2022-10-17T11:45:04.727Z,10.30
2022-10-17T11:47:40.079Z,9.10
2022-10-17T11:53:15.118Z,8.67
2022-10-17T11:55:44.615Z,11.80
2022-10-17T11:58:25.264Z,11.07
2022-10-17T12:01:01.540Z,9.37
2022-10-17T12:03:43.666Z,8.23
2022-10-17T12:06:19.183Z,9.30
2022-10-17T12:08:54.280Z,14.50
2022-10-17T12:11:34.851Z,7.97
2022-10-17T12:14:05.800Z,7.70
2022-10-17T12:16:46.663Z,6.60
2022-10-17T12:19:28.622Z,8.77
2022-10-17T12:22:01.387Z,9.97
2022-10-17T12:24:42.506Z,8.40
2022-10-17T12:27:38.108Z,7.77
2022-10-17T12:30:22.581Z,8.30
2022-10-17T12:33:08.029Z,10.60
2022-10-17T12:35:38.389Z,9.00
2022-10-17T12:38:29.538Z,8.43
2022-10-17T12:41:03.299Z,10.77
2022-10-17T12:43:55.757Z,9.87
2022-10-17T12:46:56.794Z,11.17
2022-10-17T12:49:41.110Z,9.00
2022-10-17T12:52:25.520Z,7.70
2022-10-17T12:55:13.920Z,12.33
2022-10-17T12:57:49.954Z,8.97
2022-10-17T13:00:23.082Z,9.63
2022-10-17T13:02:55.371Z,14.13
2022-10-17T13:05:29.491Z,13.80
2022-10-17T13:08:00.875Z,9.10
2022-10-17T13:10:33.765Z,10.23
2022-10-17T13:13:13.021Z,9.33
2022-10-17T13:15:41.541Z,10.57
2022-10-17T13:18:20.163Z,12.23
2022-10-17T13:21:00.294Z,10.43
2022-10-17T13:23:33.239Z,12.23
2022-10-17T13:26:16.193Z,9.57
2022-10-17T13:28:45.146Z,9.87
2022-10-17T13:31:31.710Z,8.23
2022-10-17T13:34:01.600Z,8.80
2022-10-17T13:36:32.140Z,8.93
2022-10-17T13:39:02.116Z,7.60
2022-10-17T13:41:36.522Z,8.20
2022-10-17T13:44:13.287Z,9.97
2022-10-17T13:46:42.288Z,14.30
2022-10-17T13:49:16.436Z,11.87
2022-10-17T13:51:47.090Z,10.23
2022-10-17T13:54:20.797Z,9.10
2022-10-17T13:56:57.018Z,8.80
2022-10-17T13:59:33.368Z,8.93
2022-10-17T14:02:02.604Z,6.37
2022-10-17T14:04:44.671Z,8.63
2022-10-17T14:07:29.301Z,12.90
2022-10-17T14:10:00.285Z,7.67
2022-10-17T14:12:30.058Z,7.53
2022-10-17T14:15:10.067Z,6.70
2022-10-17T14:17:40.495Z,13.10
2022-10-17T14:20:48.284Z,7.57
2022-10-17T14:23:21.955Z,8.80
2022-10-17T14:26:06.697Z,8.03
2022-10-17T14:28:36.930Z,13.17
2022-10-17T14:31:21.313Z,11.63
2022-10-17T14:33:51.902Z,12.83
2022-10-17T14:36:21.213Z,12.77
2022-10-17T14:38:52.143Z,8.77
2022-10-17T14:41:41.900Z,6.27
2022-10-17T14:44:21.562Z,7.30
2022-10-17T14:46:54.901Z,11.13
2022-10-17T14:49:29.644Z,7.97
2022-10-17T14:52:30.652Z,9.63
2022-10-17T14:55:01.273Z,14.13
2022-10-17T14:57:43.613Z,7.57
2022-10-17T15:00:17.605Z,10.43
2022-10-17T15:02:47.336Z,10.47
2022-10-17T15:05:16.644Z,10.30
2022-10-17T15:07:45.103Z,10.03
2022-10-17T15:10:26.814Z,7.73
2022-10-17T15:12:59.258Z,6.57
2022-10-17T15:15:34.663Z,8.77
2022-10-17T15:18:03.087Z,19.37
2022-10-17T15:20:32.297Z,9.47
2022-10-17T15:23:02.089Z,10.60
2022-10-17T15:25:32.244Z,9.60
2022-10-17T15:28:00.671Z,10.03
2022-10-17T15:30:31.759Z,7.53
2022-10-17T15:33:01.706Z,17.33
2022-10-17T15:35:30.515Z,13.43
2022-10-17T15:37:58.911Z,8.47
2022-10-17T15:40:30.426Z,13.00
2022-10-17T15:42:59.063Z,13.57
2022-10-17T15:45:27.503Z,7.47
2022-10-17T15:48:00.152Z,9.03
2022-10-17T15:50:30.570Z,7.03
2022-10-17T15:52:59.883Z,9.80
2022-10-17T15:55:28.380Z,9.93
2022-10-17T15:57:56.893Z,9.37
2022-10-17T16:00:25.739Z,11.97
2022-10-17T16:02:54.160Z,10.60
2022-10-17T16:05:25.593Z,10.07
2022-10-17T16:07:56.771Z,12.60
2022-10-17T16:10:25.915Z,11.43
2022-10-17T16:12:54.445Z,12.17
2022-10-17T16:15:25.205Z,9.03
2022-10-17T16:17:54.751Z,21.03
2022-10-17T16:20:24.072Z,16.00
2022-10-17T16:22:59.536Z,17.57
2022-10-17T16:25:31.000Z,14.03
2022-10-17T16:28:01.465Z,9.10
2022-10-17T16:30:31.594Z,10.43
2022-10-17T16:33:00.271Z,12.43
2022-10-17T16:35:33.356Z,11.10
2022-10-17T16:38:05.387Z,10.77
2022-10-17T16:40:35.555Z,14.47
2022-10-17T16:43:03.994Z,16.73
2022-10-17T16:45:32.374Z,12.33
2022-10-17T16:48:00.792Z,16.20
2022-10-17T16:50:31.126Z,20.93
2022-10-17T16:52:59.558Z,16.60
2022-10-17T16:55:28.131Z,14.37
2022-10-17T16:57:59.842Z,14.37
2022-10-17T17:00:28.327Z,10.63
2022-10-17T17:02:56.747Z,9.87
2022-10-17T17:05:25.232Z,11.43
2022-10-17T17:07:55.672Z,13.73
2022-10-17T17:10:24.040Z,17.00
2022-10-17T17:12:52.498Z,15.70
2022-10-17T17:15:22.268Z,17.13
2022-10-17T17:17:54.969Z,15.30
2022-10-17T17:20:23.925Z,14.00
2022-10-17T17:22:52.781Z,11.70
2022-10-17T17:25:21.228Z,18.60
2022-10-17T17:27:49.816Z,16.73
2022-10-17T17:30:18.381Z,18.93
2022-10-17T17:32:48.180Z,18.60
2022-10-17T17:35:16.706Z,13.27
2022-10-17T17:37:45.169Z,18.17
2022-10-17T17:40:13.795Z,15.17
2022-10-17T17:42:42.220Z,19.20
2022-10-17T17:45:11.483Z,12.20
2022-10-17T17:47:39.985Z,18.33
2022-10-17T17:50:10.417Z,31.73
2022-10-17T17:52:41.824Z,17.87
2022-10-17T17:55:10.937Z,16.70
2022-10-17T17:57:39.672Z,16.03
2022-10-17T18:00:09.448Z,22.97
2022-10-17T18:02:42.111Z,17.57
2022-10-17T18:05:14.239Z,18.47
2022-10-17T18:07:42.736Z,18.85
2022-10-17T18:12:44.149Z,22.37
2022-10-17T18:15:12.741Z,25.13
2022-10-17T18:17:41.189Z,16.73
2022-10-17T18:20:10.366Z,23.93
2022-10-17T18:22:40.302Z,18.83
2022-10-17T18:25:09.249Z,21.13
2022-10-17T18:27:37.678Z,20.00
2022-10-17T18:30:08.476Z,23.07
2022-10-17T18:32:36.907Z,18.90
2022-10-17T18:35:05.695Z,22.07
2022-10-17T18:37:34.155Z,21.23
2022-10-17T18:40:04.237Z,18.07
2022-10-17T18:42:32.896Z,19.03
2022-10-17T18:45:03.162Z,19.20
2022-10-17T18:47:31.896Z,22.50
2022-10-17T18:50:00.537Z,19.00
2022-10-17T18:52:29.000Z,25.23
2022-10-17T18:54:57.405Z,25.93
2022-10-17T18:57:27.362Z,22.33
2022-10-17T18:59:55.836Z,23.40
2022-10-17T19:02:24.484Z,19.40
2022-10-17T19:04:52.917Z,23.73
2022-10-17T19:07:21.368Z,27.90
2022-10-17T19:09:50.257Z,27.93
2022-10-17T19:12:18.911Z,26.90
2022-10-17T19:14:50.164Z,25.50
2022-10-17T19:17:19.327Z,26.20
2022-10-17T19:19:50.047Z,25.10
2022-10-17T19:22:18.528Z,34.00
2022-10-17T19:24:47.020Z,32.73
2022-10-17T19:27:15.491Z,34.73
2022-10-17T19:29:44.087Z,32.23
2022-10-17T19:32:16.753Z,30.33
2022-10-17T19:34:47.735Z,41.33
2022-10-17T19:37:16.140Z,41.63
2022-10-17T19:39:44.470Z,40.00
2022-10-17T19:42:12.872Z,46.37
2022-10-17T19:44:41.273Z,39.50
2022-10-17T19:47:09.720Z,35.47
2022-10-17T19:49:39.575Z,38.77
2022-10-17T19:52:08.031Z,42.70
2022-10-17T19:54:36.652Z,44.00
2022-10-17T19:57:09.473Z,57.97
2022-10-17T19:59:38.998Z,35.07
2022-10-17T20:02:07.483Z,42.53
2022-10-17T20:04:39.429Z,38.33
2022-10-17T20:07:11.924Z,40.13
2022-10-17T20:09:40.312Z,48.97
2022-10-17T20:12:08.784Z,38.33
2022-10-17T20:14:40.861Z,45.67
2022-10-17T20:17:09.564Z,39.73
2022-10-17T20:19:38.046Z,40.57
2022-10-17T20:22:06.403Z,53.50
2022-10-17T20:24:36.291Z,38.97
2022-10-17T20:27:05.060Z,45.93
2022-10-17T20:29:33.516Z,36.10
2022-10-17T20:32:02.013Z,63.83
2022-10-17T20:34:34.689Z,63.93
2022-10-17T20:37:03.247Z,44.93
2022-10-17T20:39:31.790Z,40.23
2022-10-17T20:42:01.605Z,36.77
2022-10-17T20:44:30.073Z,48.37
2022-10-17T20:47:02.094Z,39.53
2022-10-17T20:49:31.791Z,30.77
2022-10-17T20:52:00.674Z,34.87
2022-10-17T20:54:29.481Z,34.03
2022-10-17T20:57:01.100Z,31.70
2022-10-17T20:59:35.164Z,41.87
2022-10-17T21:02:03.937Z,36.83
2022-10-17T21:04:45.899Z,35.17
2022-10-17T21:07:15.371Z,36.67
2022-10-17T21:09:45.338Z,34.73
2022-10-17T21:12:21.565Z,37.37
2022-10-17T21:15:01.199Z,34.63
2022-10-17T21:17:29.721Z,42.97
2022-10-17T21:19:58.573Z,31.37
2022-10-17T21:22:27.467Z,42.93
2022-10-17T21:24:56.040Z,36.43
2022-10-17T21:27:24.438Z,37.80
2022-10-17T21:29:53.028Z,38.47
2022-10-17T21:32:47.329Z,33.00
2022-10-17T21:35:11.232Z,41.13
2022-10-17T21:37:39.672Z,42.60
2022-10-17T21:40:09.476Z,35.90
2022-10-17T21:42:37.837Z,37.23
2022-10-17T21:45:15.389Z,44.77
2022-10-17T21:48:11.150Z,35.60
2022-10-17T21:50:34.301Z,37.87
2022-10-17T21:53:02.744Z,204.30
2022-10-17T21:55:31.104Z,50.40
2022-10-17T21:57:59.490Z,35.20
2022-10-17T22:00:27.892Z,30.40
2022-10-17T22:02:57.670Z,29.43
2022-10-17T22:05:26.130Z,27.23
2022-10-17T22:07:54.544Z,36.77
2022-10-17T22:10:23.085Z,41.83
2022-10-17T22:12:51.489Z,26.53
2022-10-17T22:15:19.944Z,34.23
2022-10-17T22:17:48.348Z,39.40
2022-10-17T22:20:18.327Z,29.33
2022-10-17T22:22:46.729Z,42.73
2022-10-17T22:25:15.420Z,38.20
2022-10-17T22:27:43.902Z,39.20
2022-10-17T22:30:12.856Z,29.03
2022-10-17T22:32:41.205Z,23.87
2022-10-17T22:35:09.888Z,22.83
2022-10-17T22:37:39.684Z,52.47
2022-10-17T22:40:09.305Z,26.90
2022-10-17T22:42:37.788Z,25.83
2022-10-17T22:45:06.953Z,25.63
2022-10-17T22:47:35.368Z,22.50
2022-10-17T22:50:03.852Z,24.67
2022-10-17T22:52:32.534Z,34.83
2022-10-17T22:55:04.489Z,21.03
2022-10-17T22:57:32.952Z,33.07
2022-10-17T23:00:01.382Z,24.30
2022-10-17T23:02:30.212Z,20.37
2022-10-17T23:04:58.907Z,37.20
2022-10-17T23:07:27.905Z,41.93
2022-10-17T23:09:56.343Z,44.10
2022-10-17T23:12:26.414Z,27.00
2022-10-17T23:14:54.854Z,32.60
2022-10-17T23:17:23.284Z,30.13
2022-10-17T23:19:54.149Z,41.03
2022-10-17T23:22:25.471Z,34.53
2022-10-17T23:24:53.868Z,37.13
2022-10-17T23:27:22.268Z,66.17
2022-10-17T23:29:52.072Z,166.53
2022-10-17T23:32:21.004Z,78.27
2022-10-17T23:34:49.647Z,84.37
2022-10-17T23:37:18.472Z,79.03
2022-10-17T23:39:46.912Z,124.07
2022-10-17T23:42:15.323Z,82.67
2022-10-17T23:44:43.795Z,78.60
2022-10-17T23:47:13.608Z,88.50
2022-10-17T23:49:42.024Z,129.17
2022-10-17T23:52:10.531Z,166.40
2022-10-17T23:54:38.991Z,96.50
2022-10-17T23:57:07.449Z,147.37
2022-10-17T23:59:35.882Z,170.47
